Time;durP1;ratioP1;P1;durP2;ratioP2;P2;SDS_P1;SDS_P2;PMS_P1;PMS_P2;Temp;Humidity;BMP_temperature;BMP_pressure;BME280_temperature;BME280_humidity;BME280_pressure;Samples;Min_cycle;Max_cycle;Signal;HPM_P1;HPM_P2
2022/07/16 00:02:15;;;;;;;4.18;3.63;;;;;;;16.70;83.04;95109.75;5036536;28;20053;-71
2022/07/16 00:04:42;;;;;;;4.55;3.47;;;;;;;16.63;83.34;95105.53;5041688;28;20041;-71
2022/07/16 00:07:09;;;;;;;11.73;4.57;;;;;;;16.47;84.02;95105.78;5036722;28;20599;-71
2022/07/16 00:09:36;;;;;;;6.70;3.50;;;;;;;16.47;83.86;95098.66;5043054;28;20043;-73
2022/07/16 00:12:03;;;;;;;5.88;3.60;;;;;;;16.44;84.56;95091.31;5019969;28;20043;-71
2022/07/16 00:14:30;;;;;;;5.63;4.15;;;;;;;16.37;85.05;95096.03;5040314;28;20044;-71
2022/07/16 00:16:57;;;;;;;4.53;3.60;;;;;;;16.27;85.60;95101.28;5021269;28;20063;-71
2022/07/16 00:19:25;;;;;;;7.47;3.40;;;;;;;16.15;85.98;95094.44;5021023;28;20064;-71
2022/07/16 00:21:55;;;;;;;4.07;3.67;;;;;;;16.06;86.59;95090.69;5039663;28;20037;-71
2022/07/16 00:24:24;;;;;;;6.43;3.90;;;;;;;16.01;87.25;95095.97;5039488;28;20048;-71
2022/07/16 00:26:52;;;;;;;7.22;3.47;;;;;;;15.98;87.26;95093.84;5036749;28;20042;-71
2022/07/16 00:29:19;;;;;;;4.47;3.45;;;;;;;15.93;88.28;95096.44;5024108;28;20120;-70
2022/07/16 00:31:48;;;;;;;4.78;3.88;;;;;;;15.86;88.11;95092.25;5044671;28;20048;-70
2022/07/16 00:34:16;;;;;;;6.75;3.92;;;;;;;15.73;88.67;95079.53;5036480;28;20107;-71
2022/07/16 00:36:43;;;;;;;4.05;3.50;;;;;;;15.75;89.27;95101.09;5042311;28;20039;-71
2022/07/16 00:39:11;;;;;;;8.10;4.00;;;;;;;15.64;90.04;95104.69;5040034;28;20045;-72
2022/07/16 00:41:40;;;;;;;6.10;3.60;;;;;;;15.65;89.63;95099.19;5041799;28;20041;-73
2022/07/16 00:44:11;;;;;;;5.10;3.78;;;;;;;15.61;89.38;95102.59;5020083;28;20067;-72
2022/07/16 00:46:39;;;;;;;5.50;4.28;;;;;;;15.44;90.57;95100.94;5042124;28;20033;-72
2022/07/16 00:49:07;;;;;;;11.13;4.28;;;;;;;15.44;90.99;95098.31;5038232;28;20557;-72
2022/07/16 00:51:35;;;;;;;4.30;3.90;;;;;;;15.42;90.71;95095.16;5037951;28;20044;-72
2022/07/16 00:54:03;;;;;;;5.55;4.18;;;;;;;15.34;90.80;95103.50;5016670;28;20431;-72
2022/07/16 00:56:30;;;;;;;9.38;4.55;;;;;;;15.30;91.82;95099.78;5038336;28;20738;-72
2022/07/16 00:58:57;;;;;;;6.70;3.72;;;;;;;15.18;92.40;95088.69;5017204;28;20049;-72
2022/07/16 01:01:24;;;;;;;4.47;3.78;;;;;;;15.22;92.69;95097.66;5033434;28;20053;-70
2022/07/16 01:03:52;;;;;;;11.13;3.83;;;;;;;15.25;92.94;95097.94;5034028;28;20049;-70
2022/07/16 01:06:19;;;;;;;7.30;4.10;;;;;;;15.16;93.59;95098.66;5016101;28;20037;-70
2022/07/16 01:08:48;;;;;;;6.05;3.75;;;;;;;14.93;93.25;95069.16;5043656;28;20037;-69
2022/07/16 01:11:18;;;;;;;5.30;4.22;;;;;;;15.06;93.69;95089.69;5038961;28;20240;-70
2022/07/16 01:13:47;;;;;;;9.73;4.50;;;;;;;15.06;93.92;95094.94;5044526;28;20045;-69
2022/07/16 01:16:14;;;;;;;9.23;4.10;;;;;;;15.06;94.15;95094.94;5034655;28;20080;-69
2022/07/16 01:18:44;;;;;;;4.18;3.78;;;;;;;15.01;94.24;95092.28;5038448;28;20071;-71
2022/07/16 01:21:12;;;;;;;5.80;3.90;;;;;;;14.92;94.30;95093.78;5019292;28;20602;-71
2022/07/16 01:23:42;;;;;;;5.32;4.80;;;;;;;14.78;94.34;95087.38;5033883;28;20045;-70
2022/07/16 01:26:09;;;;;;;6.15;3.92;;;;;;;14.59;95.31;95073.88;5035696;28;20053;-70
2022/07/16 01:28:36;;;;;;;5.00;3.08;;;;;;;14.60;95.60;95076.22;5024382;28;20523;-70
2022/07/16 01:31:03;;;;;;;8.13;3.58;;;;;;;14.65;95.25;95078.88;5036222;28;20709;-70
2022/07/16 01:33:39;;;;;;;8.45;3.30;;;;;;;14.71;95.40;95091.00;5039660;28;20748;-71
2022/07/16 01:36:09;;;;;;;4.00;3.38;;;;;;;14.70;95.63;95092.03;5036990;28;20055;-71
2022/07/16 01:38:39;;;;;;;7.93;3.42;;;;;;;14.71;95.12;95088.41;5042016;28;20127;-71
2022/07/16 01:41:06;;;;;;;4.38;3.35;;;;;;;14.50;95.64;95081.38;5033556;28;20045;-70
2022/07/16 01:43:33;;;;;;;5.53;3.42;;;;;;;14.52;96.64;95081.91;5032900;28;20048;-70
2022/07/16 01:46:01;;;;;;;5.13;3.70;;;;;;;14.51;96.93;95088.19;5020472;28;20463;-71
2022/07/16 01:48:30;;;;;;;4.68;3.75;;;;;;;14.53;97.00;95091.34;5036729;28;20037;-71
2022/07/16 01:50:57;;;;;;;8.80;3.92;;;;;;;14.63;96.71;95095.91;5042367;28;20076;-71
2022/07/16 01:53:25;;;;;;;6.03;4.20;;;;;;;14.64;96.67;95087.81;5017824;28;20052;-71
2022/07/16 01:55:52;;;;;;;7.18;3.55;;;;;;;14.64;97.28;95097.47;5042825;28;20040;-72
2022/07/16 01:58:20;;;;;;;5.60;3.80;;;;;;;14.54;97.16;95098.16;5033581;28;20054;-72
2022/07/16 02:00:47;;;;;;;8.30;3.92;;;;;;;14.51;97.68;95103.91;5039753;28;20426;-71
2022/07/16 02:03:14;;;;;;;10.25;4.07;;;;;;;14.45;97.83;95097.81;5038003;28;20040;-71
2022/07/16 02:05:42;;;;;;;5.72;3.85;;;;;;;14.46;98.23;95104.66;5039843;28;20061;-71
2022/07/16 02:08:09;;;;;;;6.47;4.45;;;;;;;14.50;98.58;95112.81;5045763;28;20041;-70
2022/07/16 02:10:37;;;;;;;5.90;4.32;;;;;;;14.53;98.60;95112.31;5033885;28;20155;-70
2022/07/16 02:13:04;;;;;;;5.93;4.90;;;;;;;14.53;99.63;95114.91;5039245;28;20045;-70
2022/07/16 02:15:32;;;;;;;5.18;4.10;;;;;;;14.61;100.00;95113.72;5039360;28;20056;-70
2022/07/16 02:17:59;;;;;;;8.15;4.32;;;;;;;14.65;99.08;95110.34;5037652;28;20121;-69
2022/07/16 02:20:26;;;;;;;8.85;5.00;;;;;;;14.67;98.47;95108.25;5032465;28;21224;-70
2022/07/16 02:22:55;;;;;;;11.10;4.15;;;;;;;14.63;97.75;95107.19;5041785;28;20042;-70
2022/07/16 02:25:22;;;;;;;4.65;3.80;;;;;;;14.62;97.98;95105.63;5012735;28;20053;-70
2022/07/16 02:28:07;;;;;;;11.20;4.38;;;;;;;14.60;99.41;95112.91;5039249;28;20648;-70
2022/07/16 02:30:43;;;;;;;6.57;4.45;;;;;;;14.62;99.75;95118.72;5035666;28;20727;-70
2022/07/16 02:33:12;;;;;;;5.00;4.07;;;;;;;14.60;99.51;95120.78;5039527;28;20048;-71
2022/07/16 02:35:46;;;;;;;5.80;4.65;;;;;;;14.54;99.41;95114.69;5033571;28;20048;-71
2022/07/16 02:38:14;;;;;;;5.72;5.13;;;;;;;14.53;99.46;95128.03;5021916;28;20044;-70
2022/07/16 02:40:42;;;;;;;5.70;5.07;;;;;;;14.52;99.44;95121.22;5028133;28;20069;-70
2022/07/16 02:43:11;;;;;;;8.52;4.93;;;;;;;14.49;99.50;95129.56;5045582;28;20744;-70
2022/07/16 02:45:41;;;;;;;7.65;5.03;;;;;;;14.39;99.70;95108.53;5040318;28;20040;-72
2022/07/16 02:48:10;;;;;;;5.15;4.65;;;;;;;14.41;99.98;95119.56;5042246;28;20052;-70
2022/07/16 02:50:38;;;;;;;10.82;5.13;;;;;;;14.36;100.00;95127.34;5018837;28;20072;-70
2022/07/16 02:53:05;;;;;;;11.80;4.95;;;;;;;14.33;99.96;95134.69;5025780;28;20049;-71
2022/07/16 02:55:32;;;;;;;5.43;4.68;;;;;;;14.29;99.88;95123.09;5042173;28;20033;-70
2022/07/16 02:57:59;;;;;;;5.85;5.00;;;;;;;14.21;99.91;95128.78;5022799;28;20037;-70
2022/07/16 03:00:28;;;;;;;10.30;4.95;;;;;;;14.10;100.00;95133.13;5035609;28;20553;-70
2022/07/16 03:02:55;;;;;;;5.93;4.95;;;;;;;13.95;100.00;95133.75;5041824;28;20102;-70
2022/07/16 03:05:23;;;;;;;7.00;5.32;;;;;;;13.84;100.00;95133.84;5040313;28;20053;-71
2022/07/16 03:07:53;;;;;;;8.45;5.03;;;;;;;13.77;100.00;95136.66;5037128;28;20036;-71
2022/07/16 03:10:21;;;;;;;10.50;5.22;;;;;;;13.62;100.00;95128.63;5039776;28;20037;-70
2022/07/16 03:12:48;;;;;;;7.85;5.35;;;;;;;13.60;100.00;95130.69;5035254;28;20072;-70
2022/07/16 03:15:15;;;;;;;7.60;5.57;;;;;;;13.60;100.00;95141.94;5017090;28;20470;-71
2022/07/16 03:17:42;;;;;;;7.50;5.72;;;;;;;13.41;100.00;95117.84;5019673;28;20037;-71
2022/07/16 03:20:11;;;;;;;10.15;5.70;;;;;;;13.62;100.00;95144.31;5030855;28;20726;-71
2022/07/16 03:22:46;;;;;;;13.88;5.93;;;;;;;13.60;100.00;95149.00;5032402;28;20150;-72
2022/07/16 03:25:15;;;;;;;13.25;6.28;;;;;;;13.69;100.00;95148.34;5035491;28;20445;-71
2022/07/16 03:27:42;;;;;;;20.02;5.90;;;;;;;13.73;100.00;95146.03;5034795;28;20037;-71
2022/07/16 03:30:11;;;;;;;12.70;6.05;;;;;;;13.82;100.00;95143.78;5034830;28;20048;-71
2022/07/16 03:32:38;;;;;;;15.20;6.60;;;;;;;13.93;100.00;95156.75;5017789;28;20047;-71
2022/07/16 03:35:09;;;;;;;11.23;6.35;;;;;;;14.04;100.00;95156.88;5032625;28;20046;-71
2022/07/16 03:40:24;;;;;;;8.13;5.97;;;;;;;14.24;100.00;95157.13;5035424;28;20045;-71
2022/07/16 03:42:51;;;;;;;10.98;6.30;;;;;;;14.29;100.00;95149.28;5033641;28;20048;-71
2022/07/16 03:45:18;;;;;;;9.50;5.60;;;;;;;14.41;100.00;95156.22;5037197;28;20753;-71
2022/07/16 03:47:45;;;;;;;9.07;6.55;;;;;;;14.52;100.00;95155.28;5044677;28;20120;-71
2022/07/16 03:50:12;;;;;;;9.27;6.45;;;;;;;14.58;100.00;95151.69;5029195;28;21486;-72
2022/07/16 03:52:42;;;;;;;10.93;6.05;;;;;;;14.78;100.00;95163.41;5020564;28;20579;-71
2022/07/16 03:55:10;;;;;;;13.63;6.15;;;;;;;14.84;100.00;95160.59;5031650;28;20037;-70
2022/07/16 03:57:38;;;;;;;6.95;5.90;;;;;;;14.91;100.00;95170.91;5027090;28;20426;-71
2022/07/16 04:00:06;;;;;;;11.75;5.70;;;;;;;14.99;100.00;95167.78;5011021;28;20751;-71
2022/07/16 04:02:33;;;;;;;11.57;5.95;;;;;;;15.12;100.00;95171.81;5026512;28;20045;-70
2022/07/16 04:05:00;;;;;;;11.43;5.22;;;;;;;15.26;100.00;95172.19;5035541;28;20045;-70
2022/07/16 04:07:27;;;;;;;7.10;5.20;;;;;;;15.38;100.00;95172.81;5033290;28;20041;-71
2022/07/16 04:09:54;;;;;;;9.65;5.55;;;;;;;15.50;100.00;95167.38;5014767;28;20045;-71
2022/07/16 04:12:24;;;;;;;9.93;4.75;;;;;;;15.64;100.00;95167.72;5031243;28;20048;-72
2022/07/16 04:14:52;;;;;;;11.27;5.80;;;;;;;15.71;100.00;95163.03;5032558;28;20037;-72
2022/07/16 04:17:19;;;;;;;7.63;5.82;;;;;;;15.73;99.46;95142.56;5032057;28;20041;-72
2022/07/16 04:19:46;;;;;;;5.80;5.20;;;;;;;16.06;99.04;95172.13;5014368;28;20670;-70
2022/07/16 04:22:13;;;;;;;9.30;6.25;;;;;;;16.15;98.54;95167.19;5032060;28;20048;-72
2022/07/16 04:24:40;;;;;;;17.48;6.10;;;;;;;16.25;97.64;95173.25;5018178;28;20041;-71
2022/07/16 04:27:07;;;;;;;12.13;5.47;;;;;;;16.45;97.00;95171.75;5032896;28;20061;-72
2022/07/16 04:29:34;;;;;;;10.45;5.05;;;;;;;16.60;95.97;95173.63;5011712;28;20123;-71
2022/07/16 04:32:01;;;;;;;11.18;5.55;;;;;;;16.73;95.66;95173.13;5022097;28;20048;-71
2022/07/16 04:34:28;;;;;;;7.97;4.55;;;;;;;16.91;95.83;95187.66;5034206;28;20046;-72
2022/07/16 04:36:55;;;;;;;8.80;5.20;;;;;;;17.07;94.82;95187.66;5038202;28;20715;-72
2022/07/16 04:39:25;;;;;;;5.47;4.85;;;;;;;17.15;94.92;95187.13;5035427;28;20118;-71
2022/07/16 04:41:52;;;;;;;15.57;5.95;;;;;;;17.27;94.27;95190.28;5039748;28;20067;-71
2022/07/16 04:44:20;;;;;;;7.88;5.07;;;;;;;17.39;93.57;95190.81;5031390;28;20037;-71
2022/07/16 04:46:50;;;;;;;11.15;5.05;;;;;;;17.45;93.09;95188.16;5042790;28;20035;-71
2022/07/16 04:49:17;;;;;;;9.07;4.93;;;;;;;17.47;90.75;95191.34;5037335;28;20040;-71
2022/07/16 04:51:44;;;;;;;8.27;5.20;;;;;;;17.41;90.08;95184.47;5039429;28;20529;-71
2022/07/16 04:54:11;;;;;;;8.25;5.55;;;;;;;17.52;89.79;95178.97;5033525;28;20029;-71
2022/07/16 04:56:37;;;;;;;10.90;5.20;;;;;;;17.67;88.64;95186.03;5038840;28;20049;-71
2022/07/16 04:59:05;;;;;;;9.90;5.03;;;;;;;17.74;88.93;95191.81;5026062;28;20036;-71
2022/07/16 05:01:32;;;;;;;6.28;5.10;;;;;;;17.84;88.00;95195.47;5036171;28;20136;-70
2022/07/16 05:03:59;;;;;;;6.35;4.85;;;;;;;17.96;87.08;95196.00;5021466;28;20099;-71
2022/07/16 05:06:26;;;;;;;6.53;5.53;;;;;;;18.08;85.46;95191.22;5027126;28;20033;-72
2022/07/16 05:08:56;;;;;;;7.57;4.95;;;;;;;18.14;85.03;95195.41;5015303;28;20038;-74
2022/07/16 05:11:24;;;;;;;6.57;5.15;;;;;;;18.24;83.68;95193.78;5003390;28;20052;-73
2022/07/16 05:13:53;;;;;;;6.20;4.72;;;;;;;18.32;82.99;95188.75;5023732;28;20049;-73
2022/07/16 05:16:20;;;;;;;7.95;4.85;;;;;;;18.47;81.64;95187.88;5017651;28;20052;-72
2022/07/16 05:18:49;;;;;;;8.18;5.45;;;;;;;18.59;80.80;95189.41;5018415;28;20068;-73
2022/07/16 05:21:16;;;;;;;9.05;4.68;;;;;;;18.72;78.47;95183.53;5038119;28;20084;-72
2022/07/16 05:23:48;;;;;;;6.35;4.85;;;;;;;18.78;78.70;95190.38;5025584;28;20045;-72
2022/07/16 05:26:15;;;;;;;9.30;4.55;;;;;;;18.94;78.43;95192.91;5034633;28;20048;-71
2022/07/16 05:28:42;;;;;;;8.13;4.88;;;;;;;19.01;76.52;95186.25;5041459;28;20045;-72
2022/07/16 05:31:09;;;;;;;10.43;4.35;;;;;;;18.98;75.68;95191.28;5031145;28;20395;-72
2022/07/16 05:33:37;;;;;;;8.82;4.70;;;;;;;19.09;76.07;95190.97;5032294;28;21501;-72
2022/07/16 05:36:04;;;;;;;6.63;3.83;;;;;;;19.17;74.07;95199.34;5032125;28;20052;-72
2022/07/16 05:38:31;;;;;;;3.83;3.15;;;;;;;19.19;72.32;95197.22;5026019;28;20102;-72
2022/07/16 05:40:58;;;;;;;9.25;3.20;;;;;;;19.34;73.10;95193.66;5038999;28;20049;-72
2022/07/16 05:43:25;;;;;;;4.32;3.63;;;;;;;19.46;74.22;95196.72;5017181;28;20056;-72
2022/07/16 05:45:52;;;;;;;9.90;4.38;;;;;;;19.43;75.17;95202.59;5026515;28;20052;-72
2022/07/16 05:48:19;;;;;;;11.15;5.22;;;;;;;19.42;76.44;95206.28;5018280;28;20040;-72
2022/07/16 05:50:47;;;;;;;6.18;4.50;;;;;;;19.61;74.82;95204.53;5023879;28;20063;-72
2022/07/16 05:53:14;;;;;;;10.00;4.80;;;;;;;19.57;74.83;95197.44;5037759;28;20421;-72
2022/07/16 05:55:41;;;;;;;5.78;3.83;;;;;;;19.52;74.41;95216.78;5045603;28;20048;-72
2022/07/16 05:58:08;;;;;;;5.95;4.20;;;;;;;19.57;74.63;95214.09;5022723;28;20040;-73
2022/07/16 06:00:35;;;;;;;6.90;5.05;;;;;;;19.74;74.14;95212.91;5051184;28;20044;-72
2022/07/16 06:03:02;;;;;;;6.80;4.97;;;;;;;19.96;73.53;95226.41;5050343;28;20124;-72
2022/07/16 06:05:29;;;;;;;5.10;4.60;;;;;;;20.00;71.70;95216.84;5034501;28;20067;-71
2022/07/16 06:07:56;;;;;;;11.93;4.70;;;;;;;19.96;71.59;95228.28;5056075;28;20080;-72
2022/07/16 06:10:23;;;;;;;5.47;4.13;;;;;;;19.89;71.58;95215.38;5048897;28;20109;-72
2022/07/16 06:12:53;;;;;;;7.45;4.47;;;;;;;19.91;72.72;95218.53;5069423;28;20039;-71
2022/07/16 06:15:20;;;;;;;12.68;4.78;;;;;;;20.10;72.07;95215.19;5067025;28;20039;-71
2022/07/16 06:17:47;;;;;;;5.80;4.63;;;;;;;20.21;71.95;95219.28;5068943;28;20106;-71
2022/07/16 06:20:14;;;;;;;11.05;4.85;;;;;;;20.31;72.05;95216.53;5067626;28;20092;-71
2022/07/16 06:22:41;;;;;;;15.98;5.13;;;;;;;20.40;71.99;95220.09;5055939;28;20055;-71
2022/07/16 06:25:12;;;;;;;9.18;5.10;;;;;;;20.66;70.79;95217.16;5039199;28;20045;-70
2022/07/16 06:27:43;;;;;;;9.90;5.03;;;;;;;20.86;69.45;95215.31;5031667;28;20061;-70
2022/07/16 06:30:11;;;;;;;9.07;4.70;;;;;;;21.06;70.81;95215.00;5018832;28;20053;-71
2022/07/16 06:32:39;;;;;;;11.27;5.68;;;;;;;21.24;69.96;95204.69;5046663;28;20441;-70
2022/07/16 06:35:07;;;;;;;8.90;4.93;;;;;;;21.36;68.77;95207.69;5040892;28;20044;-72
2022/07/16 06:37:34;;;;;;;10.38;4.35;;;;;;;21.54;69.51;95214.81;5021436;28;20521;-72
2022/07/16 06:40:01;;;;;;;12.88;5.10;;;;;;;21.82;67.29;95209.56;5043647;28;20041;-72
2022/07/16 06:42:27;;;;;;;9.27;4.50;;;;;;;22.08;64.49;95201.16;5041279;28;20033;-72
2022/07/16 06:44:57;;;;;;;12.43;5.43;;;;;;;22.28;66.54;95195.47;5020615;28;20049;-72
2022/07/16 06:47:24;;;;;;;16.27;4.20;;;;;;;22.39;65.52;95195.25;5012885;28;20048;-72
2022/07/16 06:49:51;;;;;;;7.53;4.10;;;;;;;22.43;61.73;95204.97;5020423;28;20094;-72
2022/07/16 06:52:18;;;;;;;3.90;3.30;;;;;;;22.42;62.20;95205.25;5035373;28;20044;-70
2022/07/16 06:54:45;;;;;;;4.45;3.72;;;;;;;22.48;61.98;95204.09;5040516;28;20041;-71
2022/07/16 06:57:12;;;;;;;10.25;3.97;;;;;;;22.53;62.50;95212.72;5032755;28;20721;-71
2022/07/16 06:59:39;;;;;;;6.10;4.22;;;;;;;22.73;63.79;95204.66;5037865;28;20052;-72
2022/07/16 07:02:05;;;;;;;12.18;4.72;;;;;;;22.89;61.76;95203.22;5028974;28;20046;-72
2022/07/16 07:08:06;;;;;;;9.00;4.47;;;;;;;23.16;62.48;95206.91;5091785;27;20136;-66
2022/07/16 07:10:33;;;;;;;9.98;4.25;;;;;;;23.06;61.52;95203.38;5079850;28;20048;-66
2022/07/16 07:13:00;;;;;;;8.75;5.20;;;;;;;23.11;63.73;95209.69;5087426;28;20051;-68
2022/07/16 07:15:27;;;;;;;6.38;3.92;;;;;;;23.24;60.92;95214.13;5077010;28;20048;-68
2022/07/16 07:17:53;;;;;;;23.00;5.05;;;;;;;23.09;60.57;95202.78;5078128;28;20516;-68
2022/07/16 07:20:21;;;;;;;11.57;4.38;;;;;;;23.03;61.28;95208.47;5077429;28;20104;-66
2022/07/16 07:22:50;;;;;;;16.63;4.72;;;;;;;22.96;63.80;95194.81;5078700;28;20044;-66
2022/07/16 07:25:17;;;;;;;10.32;4.05;;;;;;;23.11;63.38;95199.81;5073698;28;20051;-68
2022/07/16 07:27:44;;;;;;;7.97;3.88;;;;;;;23.27;60.62;95208.22;5075727;28;20032;-66
2022/07/16 07:30:12;;;;;;;5.95;4.38;;;;;;;23.51;61.48;95207.13;5077825;28;21320;-67
2022/07/16 07:32:38;;;;;;;16.48;4.50;;;;;;;23.70;60.18;95209.56;5080460;28;20062;-68
2022/07/16 07:35:06;;;;;;;6.63;4.05;;;;;;;23.82;59.19;95202.63;5076991;28;20450;-67
2022/07/16 07:37:34;;;;;;;12.10;3.85;;;;;;;23.89;60.70;95201.41;5073940;28;20059;-67
2022/07/16 07:40:03;;;;;;;9.50;4.18;;;;;;;23.89;58.01;95202.19;5075625;28;20474;-67
2022/07/16 07:42:30;;;;;;;6.88;3.20;;;;;;;24.20;54.32;95214.66;5077711;28;20066;-66
2022/07/16 07:44:57;;;;;;;3.80;2.97;;;;;;;24.38;53.23;95216.31;5078253;27;20048;-67
2022/07/16 07:47:24;;;;;;;6.13;3.75;;;;;;;24.57;53.21;95216.03;5072710;28;20032;-66
2022/07/16 07:49:51;;;;;;;13.57;3.65;;;;;;;24.80;54.45;95214.03;5077609;28;20044;-67
2022/07/16 07:52:17;;;;;;;13.77;5.55;;;;;;;24.84;54.41;95218.75;5076020;28;20047;-66
2022/07/16 07:54:44;;;;;;;3.90;3.30;;;;;;;25.12;52.47;95220.03;5079043;28;20044;-67
2022/07/16 07:57:11;;;;;;;4.30;2.80;;;;;;;25.33;49.31;95224.72;5070918;28;20512;-67
2022/07/16 07:59:38;;;;;;;4.70;2.95;;;;;;;25.35;51.00;95218.00;5074723;28;20055;-69
2022/07/16 08:02:05;;;;;;;4.25;3.25;;;;;;;25.22;50.00;95213.59;5074716;28;20037;-69
2022/07/16 08:04:35;;;;;;;6.18;3.17;;;;;;;25.32;50.48;95225.84;5081223;28;20077;-70
2022/07/16 08:07:02;;;;;;;4.88;3.33;;;;;;;25.47;50.26;95213.91;5073095;28;20521;-69
2022/07/16 08:09:30;;;;;;;4.85;3.40;;;;;;;25.41;50.19;95218.63;5071533;28;20044;-68
2022/07/16 08:11:57;;;;;;;6.90;3.15;;;;;;;25.76;50.61;95216.66;5077124;28;20040;-69
2022/07/16 08:14:24;;;;;;;4.82;3.25;;;;;;;26.11;49.12;95232.59;5076278;28;20086;-68
2022/07/16 08:16:57;;;;;;;3.97;3.50;;;;;;;26.18;48.29;95223.28;5075003;28;20047;-69
2022/07/16 08:19:24;;;;;;;8.27;3.72;;;;;;;26.33;49.09;95222.75;5059869;28;20513;-68
2022/07/16 08:21:51;;;;;;;3.40;3.05;;;;;;;26.43;48.73;95206.34;5063767;28;20043;-68
2022/07/16 08:27:04;;;;;;;6.68;3.78;;;;;;;26.65;49.27;95212.53;5061236;28;20047;-69
2022/07/16 08:29:31;;;;;;;5.60;3.28;;;;;;;26.78;49.22;95210.75;5071724;28;20044;-69
2022/07/16 08:31:58;;;;;;;10.90;4.00;;;;;;;26.58;49.09;95212.22;5065165;28;20040;-69
2022/07/16 08:34:25;;;;;;;8.02;4.30;;;;;;;26.96;49.03;95206.06;5059198;28;20148;-69
2022/07/16 08:36:52;;;;;;;7.45;3.90;;;;;;;27.18;48.60;95207.59;5059305;28;20044;-69
2022/07/16 08:39:20;;;;;;;6.95;4.25;;;;;;;27.22;48.05;95209.28;5058655;28;20041;-70
2022/07/16 08:41:48;;;;;;;7.20;3.60;;;;;;;26.97;49.70;95208.38;5063173;28;20048;-70
2022/07/16 08:44:16;;;;;;;5.53;4.40;;;;;;;27.36;48.41;95202.91;5063761;28;20643;-69
2022/07/16 08:46:43;;;;;;;7.28;3.33;;;;;;;27.54;47.00;95204.31;5058286;28;20709;-68
2022/07/16 08:49:11;;;;;;;5.18;3.40;;;;;;;27.42;48.05;95206.94;5062124;28;20048;-70
2022/07/16 08:51:39;;;;;;;5.00;3.90;;;;;;;27.84;46.81;95206.84;5061082;28;20228;-68
2022/07/16 08:54:17;;;;;;;8.93;3.83;;;;;;;28.03;46.12;95204.41;5065411;28;21189;-67
2022/07/16 08:56:44;;;;;;;10.50;3.38;;;;;;;28.16;45.15;95199.06;5059053;28;20040;-67
2022/07/16 08:59:13;;;;;;;5.50;3.55;;;;;;;28.31;43.37;95217.16;5064477;28;20052;-68
2022/07/16 09:01:41;;;;;;;5.05;3.38;;;;;;;28.20;44.72;95211.47;5060868;28;20060;-69
2022/07/16 09:04:08;;;;;;;6.72;3.97;;;;;;;28.48;43.24;95212.69;5065088;28;20048;-68
2022/07/16 09:06:35;;;;;;;8.38;4.13;;;;;;;28.45;43.65;95214.16;5061900;28;20044;-68
2022/07/16 09:09:03;;;;;;;11.05;3.88;;;;;;;28.44;43.57;95217.16;5042879;28;20461;-70
2022/07/16 09:11:32;;;;;;;14.75;4.13;;;;;;;28.75;43.52;95217.34;5059247;28;20048;-69
2022/07/16 09:14:05;;;;;;;3.97;3.53;;;;;;;28.98;41.36;95216.88;5061667;28;20062;-70
2022/07/16 09:16:37;;;;;;;14.02;5.53;;;;;;;29.19;41.90;95218.59;5060508;28;20036;-69
2022/07/16 09:19:27;;;;;;;4.55;3.97;;;;;;;29.38;41.57;95221.44;5056228;28;20399;-70
2022/07/16 09:22:10;;;;;;;7.32;4.53;;;;;;;29.47;39.88;95210.56;5064243;28;20135;-69
2022/07/16 09:24:45;;;;;;;10.20;4.30;;;;;;;29.61;41.07;95212.84;5065127;28;20040;-69
2022/07/16 09:27:22;;;;;;;6.90;3.83;;;;;;;29.88;39.81;95212.03;5058786;28;20046;-69
2022/07/16 09:29:52;;;;;;;7.97;4.00;;;;;;;30.19;39.23;95205.09;5058025;28;20575;-69
2022/07/16 09:32:36;;;;;;;9.35;4.38;;;;;;;30.41;39.42;95192.97;5060554;28;20045;-69
2022/07/16 09:35:06;;;;;;;7.97;4.10;;;;;;;30.40;38.66;95204.09;5058816;28;20048;-68
2022/07/16 09:37:54;;;;;;;5.47;3.65;;;;;;;30.58;39.87;95194.50;5061320;28;20083;-69
2022/07/16 09:40:41;;;;;;;7.90;4.18;;;;;;;30.75;38.76;95197.94;5057116;28;20036;-69
2022/07/16 09:43:22;;;;;;;9.35;3.70;;;;;;;30.56;38.02;95198.66;5060611;28;20131;-69
2022/07/16 09:46:02;;;;;;;7.75;3.78;;;;;;;30.98;37.08;95196.16;5060532;28;20056;-69
2022/07/16 09:48:31;;;;;;;3.95;3.05;;;;;;;30.81;37.22;95185.75;5064944;28;20032;-69
2022/07/16 09:51:20;;;;;;;8.23;6.68;;;;;;;31.11;36.96;95194.09;5057923;28;20029;-69
2022/07/16 09:53:50;;;;;;;7.82;5.22;;;;;;;31.20;35.94;95185.81;5062771;28;20036;-70
2022/07/16 09:56:27;;;;;;;4.95;4.22;;;;;;;31.51;35.31;95190.28;5061866;28;20056;-66
2022/07/16 09:58:57;;;;;;;4.30;3.58;;;;;;;31.52;35.03;95180.28;5059168;28;20044;-66
2022/07/16 10:01:32;;;;;;;8.73;3.30;;;;;;;31.37;35.00;95188.06;5058418;28;20135;-69
2022/07/16 10:03:58;;;;;;;9.32;3.90;;;;;;;31.31;36.34;95180.63;5064053;28;20036;-69
2022/07/16 10:06:27;;;;;;;5.72;3.60;;;;;;;31.58;35.85;95173.47;5058776;28;20062;-68
2022/07/16 10:08:54;;;;;;;4.05;3.33;;;;;;;31.71;33.87;95177.56;5064690;28;20067;-70
2022/07/16 10:11:22;;;;;;;5.63;3.38;;;;;;;31.86;33.88;95177.81;5056132;28;20126;-68
2022/07/16 10:13:50;;;;;;;5.60;3.30;;;;;;;31.94;34.18;95179.47;5057748;28;20135;-68
2022/07/16 10:16:40;;;;;;;6.15;3.38;;;;;;;31.98;33.54;95164.13;5061452;28;20160;-67
2022/07/16 10:19:09;;;;;;;5.88;3.08;;;;;;;32.20;33.45;95165.28;5064785;28;20498;-67
2022/07/16 10:21:36;;;;;;;6.25;2.80;;;;;;;31.92;33.56;95176.34;5055144;28;20064;-67
2022/07/16 10:24:14;;;;;;;4.47;3.42;;;;;;;31.52;33.58;95169.53;5057379;27;20043;-68
2022/07/16 10:26:42;;;;;;;4.03;3.00;;;;;;;31.71;33.72;95164.09;5056183;28;20040;-68
2022/07/16 10:29:09;;;;;;;3.53;2.80;;;;;;;31.97;32.45;95162.59;5061097;28;20040;-67
2022/07/16 10:31:36;;;;;;;8.38;2.78;;;;;;;32.22;32.95;95157.63;5060312;28;20044;-69
2022/07/16 10:34:12;;;;;;;3.78;3.42;;;;;;;31.92;31.97;95160.19;5061212;27;20846;-69
2022/07/16 10:36:52;;;;;;;6.32;3.53;;;;;;;32.08;33.64;95158.16;5055736;28;20037;-68
2022/07/16 10:39:20;;;;;;;4.45;3.20;;;;;;;32.54;31.47;95152.69;5057548;28;20041;-69
2022/07/16 10:42:15;;;;;;;5.43;2.53;;;;;;;32.43;31.48;95150.97;5059778;28;20098;-73
2022/07/16 10:44:48;;;;;;;3.60;2.30;;;;;;;32.36;31.81;95149.75;5058085;27;20063;-71
2022/07/16 10:47:16;;;;;;;3.85;2.50;;;;;;;32.13;31.40;95144.41;5062738;28;20040;-71
2022/07/16 10:49:44;;;;;;;3.38;2.40;;;;;;;31.98;31.26;95150.66;5066751;28;20078;-71
2022/07/16 10:52:18;;;;;;;4.35;2.85;;;;;;;32.12;32.48;95148.22;5066011;28;20039;-72
2022/07/16 10:54:49;;;;;;;4.70;2.03;;;;;;;32.09;30.18;95148.97;5066392;28;20044;-71
2022/07/16 10:57:17;;;;;;;4.40;2.53;;;;;;;32.29;31.12;95135.41;5048520;28;20151;-72
2022/07/16 10:59:46;;;;;;;3.15;2.50;;;;;;;32.66;30.21;95138.22;5066097;28;20041;-71
2022/07/16 11:02:17;;;;;;;2.72;2.15;;;;;;;32.71;29.22;95147.91;5059927;28;20053;-72
2022/07/16 11:04:48;;;;;;;4.57;2.60;;;;;;;32.90;30.36;95146.97;5059464;28;20048;-72
2022/07/16 11:07:19;;;;;;;5.72;2.55;;;;;;;32.96;28.03;95149.00;5056191;28;20132;-72
2022/07/16 11:09:48;;;;;;;2.75;2.22;;;;;;;33.16;29.74;95142.69;5057833;28;20047;-71
2022/07/16 11:12:18;;;;;;;5.38;2.65;;;;;;;33.66;26.78;95157.50;5057896;28;20108;-72
2022/07/16 11:14:53;;;;;;;3.67;2.33;;;;;;;33.60;28.06;95145.47;5059232;28;20033;-71
2022/07/16 11:17:23;;;;;;;2.78;1.95;;;;;;;33.80;26.49;95153.34;5059836;28;20033;-71
2022/07/16 11:19:56;;;;;;;2.45;2.25;;;;;;;33.36;26.92;95145.97;5060048;28;20040;-72
2022/07/16 11:22:28;;;;;;;4.05;2.50;;;;;;;33.14;27.30;95140.34;5078758;28;20051;-78
2022/07/16 11:25:00;;;;;;;2.53;2.00;;;;;;;33.20;27.21;95138.88;5064739;28;20076;-70
2022/07/16 11:27:38;;;;;;;2.92;2.47;;;;;;;33.19;28.47;95140.03;5062564;27;20437;-66
2022/07/16 11:30:10;;;;;;;4.30;2.50;;;;;;;33.51;27.10;95137.66;5063294;28;20051;-67
2022/07/16 11:32:46;;;;;;;4.93;2.30;;;;;;;33.66;27.99;95138.59;5059427;28;20052;-68
2022/07/16 11:35:14;;;;;;;2.70;2.45;;;;;;;33.89;27.52;95146.50;5061170;28;20545;-67
2022/07/16 11:37:53;;;;;;;4.93;2.22;;;;;;;34.04;27.37;95147.38;5061722;28;20048;-68
2022/07/16 11:40:35;;;;;;;5.28;2.35;;;;;;;33.92;27.17;95139.56;5064523;28;20109;-66
2022/07/16 11:43:02;;;;;;;2.22;1.90;;;;;;;34.32;27.19;95129.06;5056394;28;20055;-68
2022/07/16 11:45:39;;;;;;;3.42;2.33;;;;;;;34.28;27.77;95146.00;5057479;28;20036;-67
2022/07/16 11:48:10;;;;;;;3.58;2.58;;;;;;;34.41;26.39;95133.00;5057104;28;20505;-68
2022/07/16 11:50:37;;;;;;;10.95;2.53;;;;;;;34.77;27.31;95138.59;5064746;28;20056;-68